createdAt,value
2018-12-10T00:01:04.669Z,6.57
2018-12-10T00:03:36.118Z,6.57
2018-12-10T00:06:05.671Z,6.56
2018-12-10T00:08:34.942Z,6.50
2018-12-10T00:11:04.153Z,6.57
2018-12-10T00:13:33.616Z,6.57
2018-12-10T00:16:02.896Z,6.68
2018-12-10T00:18:32.156Z,6.50
2018-12-10T00:21:01.345Z,6.55
2018-12-10T00:23:30.564Z,6.47
2018-12-10T00:25:59.729Z,6.40
2018-12-10T00:28:28.978Z,6.23
2018-12-10T00:30:58.164Z,6.18
2018-12-10T00:33:27.398Z,6.10
2018-12-10T00:35:56.927Z,6.02
2018-12-10T00:38:26.155Z,5.96
2018-12-10T00:40:55.365Z,5.90
2018-12-10T00:43:24.625Z,6.01
2018-12-10T00:45:53.813Z,5.97
2018-12-10T00:48:23.029Z,5.84
2018-12-10T00:50:52.249Z,5.69
2018-12-10T00:53:21.457Z,5.71
2018-12-10T00:55:50.679Z,5.74
2018-12-10T00:58:19.869Z,5.65
2018-12-10T01:00:49.196Z,5.62
2018-12-10T01:03:18.453Z,5.58
2018-12-10T01:05:47.653Z,5.56
2018-12-10T01:08:17.225Z,5.65
2018-12-10T01:10:46.492Z,5.70
2018-12-10T01:13:16.495Z,5.72
2018-12-10T01:15:45.728Z,5.70
2018-12-10T01:18:15.533Z,5.78
2018-12-10T01:20:44.901Z,5.84
2018-12-10T01:23:14.591Z,5.85
2018-12-10T01:25:43.828Z,5.96
2018-12-10T01:28:13.390Z,6.08
2018-12-10T01:30:42.626Z,6.04
2018-12-10T01:33:12.022Z,6.05
2018-12-10T01:35:41.397Z,6.04
2018-12-10T01:38:10.595Z,5.94
2018-12-10T01:40:39.993Z,5.89
2018-12-10T01:43:09.361Z,5.78
2018-12-10T01:45:38.595Z,5.67
2018-12-10T01:48:07.824Z,5.63
2018-12-10T01:50:37.089Z,5.58
2018-12-10T01:53:06.311Z,5.53
2018-12-10T01:55:35.520Z,5.51
2018-12-10T01:58:04.717Z,5.44
2018-12-10T02:00:34.032Z,5.54
2018-12-10T02:03:03.275Z,5.48
2018-12-10T02:05:32.510Z,5.47
2018-12-10T02:08:01.669Z,5.44
2018-12-10T02:10:30.900Z,5.38
2018-12-10T02:13:00.167Z,5.41
2018-12-10T02:15:29.461Z,5.29
2018-12-10T02:17:58.676Z,5.31
2018-12-10T02:20:27.897Z,5.36
2018-12-10T02:22:57.069Z,5.46
2018-12-10T02:25:26.321Z,5.54
2018-12-10T02:27:55.531Z,5.65
2018-12-10T02:30:24.808Z,5.84
2018-12-10T02:32:53.986Z,5.88
2018-12-10T02:35:23.193Z,5.95
2018-12-10T02:37:52.447Z,5.89
2018-12-10T02:40:21.673Z,5.91
2018-12-10T02:42:50.912Z,5.91
2018-12-10T02:45:20.349Z,5.86
2018-12-10T02:47:49.636Z,5.68
2018-12-10T02:50:19.227Z,5.45
2018-12-10T02:52:48.531Z,5.43
2018-12-10T02:55:18.324Z,5.33
2018-12-10T02:57:47.518Z,5.22
2018-12-10T03:00:17.413Z,5.22
2018-12-10T03:02:46.652Z,5.17
2018-12-10T03:05:17.726Z,5.10
2018-12-10T03:07:47.054Z,4.98
2018-12-10T03:10:17.179Z,4.96
2018-12-10T03:12:46.470Z,4.85
2018-12-10T03:15:20.336Z,4.79
2018-12-10T03:17:49.616Z,4.71
2018-12-10T03:20:20.688Z,4.62
2018-12-10T03:22:49.951Z,4.47
2018-12-10T03:25:19.669Z,4.30
2018-12-10T03:27:48.891Z,4.36
2018-12-10T03:30:18.794Z,4.35
2018-12-10T03:32:48.015Z,4.39
2018-12-10T03:35:18.295Z,4.41
2018-12-10T03:37:47.522Z,4.40
2018-12-10T03:40:17.871Z,4.41
2018-12-10T03:42:47.137Z,4.55
2018-12-10T03:45:17.069Z,4.52
2018-12-10T03:47:46.354Z,4.49
2018-12-10T03:50:16.634Z,4.48
2018-12-10T03:52:45.867Z,4.50
2018-12-10T03:55:16.151Z,4.48
2018-12-10T03:57:45.555Z,4.49
2018-12-10T04:00:16.609Z,4.43
2018-12-10T04:02:45.892Z,4.45
2018-12-10T04:05:16.144Z,4.46
2018-12-10T04:07:45.496Z,4.45
2018-12-10T04:10:15.940Z,4.51
2018-12-10T04:12:45.179Z,4.41
2018-12-10T04:15:14.951Z,4.49
2018-12-10T04:17:46.315Z,4.52
2018-12-10T04:20:17.024Z,4.55
2018-12-10T04:22:46.273Z,4.50
2018-12-10T04:25:16.598Z,4.41
2018-12-10T04:27:46.070Z,4.49
2018-12-10T04:30:15.922Z,4.49
2018-12-10T04:32:45.102Z,4.47
2018-12-10T04:35:15.758Z,4.45
2018-12-10T04:37:44.945Z,4.41
2018-12-10T04:40:14.539Z,4.30
2018-12-10T04:42:43.714Z,4.18
2018-12-10T04:45:13.493Z,4.33
2018-12-10T04:47:46.280Z,4.32
2018-12-10T04:50:15.690Z,4.34
2018-12-10T04:52:44.941Z,4.38
2018-12-10T04:55:15.540Z,4.43
2018-12-10T04:57:44.710Z,4.44
2018-12-10T05:00:15.028Z,4.36
2018-12-10T05:02:44.537Z,4.29
2018-12-10T05:05:15.825Z,4.35
2018-12-10T05:07:45.162Z,4.30
2018-12-10T05:10:15.976Z,4.32
2018-12-10T05:12:45.230Z,4.46
2018-12-10T05:15:15.183Z,4.43
2018-12-10T05:17:44.352Z,4.38
2018-12-10T05:20:15.015Z,4.34
2018-12-10T05:22:44.240Z,4.39
2018-12-10T05:25:13.662Z,4.48
2018-12-10T05:27:44.329Z,4.53
2018-12-10T05:30:14.327Z,4.50
2018-12-10T05:32:43.498Z,4.47
2018-12-10T05:35:12.673Z,4.48
2018-12-10T05:37:41.840Z,4.50
2018-12-10T05:40:11.122Z,4.60
2018-12-10T05:42:40.818Z,4.65
2018-12-10T05:45:10.369Z,4.68
2018-12-10T05:47:40.424Z,4.69
2018-12-10T05:50:09.672Z,4.74
2018-12-10T05:52:38.984Z,4.77
2018-12-10T05:55:08.241Z,4.74
2018-12-10T05:57:37.515Z,4.73
2018-12-10T06:00:06.815Z,4.66
2018-12-10T06:02:36.015Z,4.51
2018-12-10T06:05:05.677Z,4.43
2018-12-10T06:07:34.872Z,4.42
2018-12-10T06:10:04.161Z,4.51
2018-12-10T06:12:33.412Z,4.47
2018-12-10T06:15:02.725Z,4.48
2018-12-10T06:17:32.008Z,4.45
2018-12-10T06:20:01.208Z,4.43
2018-12-10T06:22:30.413Z,4.44
2018-12-10T06:24:59.619Z,4.60
2018-12-10T06:27:28.846Z,4.70
2018-12-10T06:29:58.033Z,4.73
2018-12-10T06:32:27.238Z,4.81
2018-12-10T06:34:56.423Z,4.87
2018-12-10T06:37:25.640Z,5.03
2018-12-10T06:39:54.849Z,4.99
2018-12-10T06:42:24.158Z,4.95
2018-12-10T06:44:53.316Z,4.86
2018-12-10T06:47:22.548Z,4.81
2018-12-10T06:49:51.763Z,4.79
2018-12-10T06:52:20.995Z,4.81
2018-12-10T06:54:50.190Z,4.96
2018-12-10T06:57:19.409Z,4.94
2018-12-10T06:59:48.639Z,5.04
2018-12-10T07:02:17.930Z,5.04
2018-12-10T07:04:47.244Z,5.12
2018-12-10T07:07:16.497Z,5.02
2018-12-10T07:09:45.718Z,5.00
2018-12-10T07:12:15.066Z,5.07
2018-12-10T07:14:44.494Z,5.11
2018-12-10T07:17:13.689Z,5.29
2018-12-10T07:19:42.991Z,5.89
2018-12-10T07:22:12.198Z,5.77
2018-12-10T07:24:41.460Z,6.03
2018-12-10T07:27:10.921Z,5.65
2018-12-10T07:29:40.117Z,5.62
2018-12-10T07:32:09.830Z,5.45
2018-12-10T07:34:39.096Z,5.17
2018-12-10T07:37:08.651Z,5.23
2018-12-10T07:39:37.800Z,5.40
2018-12-10T07:42:07.123Z,5.31
2018-12-10T07:44:37.990Z,5.75
2018-12-10T07:47:07.318Z,5.42
2018-12-10T07:49:36.588Z,5.21
2018-12-10T07:52:06.260Z,4.94
2018-12-10T07:54:35.479Z,4.73
2018-12-10T07:57:04.676Z,4.68
2018-12-10T07:59:34.176Z,4.62
2018-12-10T08:02:03.759Z,4.71
2018-12-10T08:04:33.000Z,5.02
2018-12-10T08:07:02.282Z,5.12
2018-12-10T08:09:31.479Z,5.14
2018-12-10T08:12:00.653Z,5.07
2018-12-10T08:14:29.897Z,5.18
2018-12-10T08:16:59.090Z,5.19
2018-12-10T08:19:28.347Z,5.21
2018-12-10T08:21:57.738Z,5.45
2018-12-10T08:24:26.965Z,5.54
2018-12-10T08:26:56.181Z,5.64
2018-12-10T08:29:25.432Z,5.59
2018-12-10T08:31:54.715Z,5.64
2018-12-10T08:34:23.860Z,5.68
2018-12-10T08:36:53.067Z,5.74
2018-12-10T08:39:22.259Z,5.89
2018-12-10T08:41:51.512Z,5.88
2018-12-10T08:44:20.889Z,5.89
2018-12-10T08:46:50.073Z,5.91
2018-12-10T08:49:19.257Z,6.12
2018-12-10T08:51:49.351Z,6.16
2018-12-10T08:54:20.757Z,6.21
2018-12-10T08:56:51.289Z,6.10
2018-12-10T08:59:21.485Z,6.02
2018-12-10T09:01:51.386Z,6.00
2018-12-10T09:04:20.629Z,5.98
2018-12-10T09:06:52.843Z,6.09
2018-12-10T09:09:22.735Z,6.10
2018-12-10T09:11:52.266Z,6.06
2018-12-10T09:14:23.073Z,6.24
2018-12-10T09:16:52.465Z,6.22
2018-12-10T09:19:21.801Z,6.35
2018-12-10T09:21:51.061Z,6.25
2018-12-10T09:24:20.366Z,6.09
2018-12-10T09:26:50.005Z,6.00
2018-12-10T09:29:19.228Z,5.91
2018-12-10T09:31:48.420Z,5.92
2018-12-10T09:34:17.666Z,5.97
2018-12-10T09:36:47.000Z,5.99
2018-12-10T09:39:16.873Z,5.95
2018-12-10T09:41:50.994Z,5.99
2018-12-10T09:44:20.289Z,5.95
2018-12-10T09:46:49.503Z,5.93
2018-12-10T09:49:18.757Z,6.00
2018-12-10T09:51:47.937Z,6.02
2018-12-10T09:54:17.128Z,6.05
2018-12-10T09:56:46.740Z,6.04
2018-12-10T09:59:15.877Z,6.06
2018-12-10T10:01:45.203Z,6.25
2018-12-10T10:04:14.521Z,6.38
2018-12-10T10:06:43.947Z,6.50
2018-12-10T10:09:12.991Z,6.64
2018-12-10T10:11:42.212Z,6.72
2018-12-10T10:14:11.613Z,6.76
2018-12-10T10:16:40.812Z,6.74
2018-12-10T10:19:10.533Z,6.76
2018-12-10T10:21:39.746Z,6.83
2018-12-10T10:24:09.305Z,6.93
2018-12-10T10:26:38.486Z,7.00
2018-12-10T10:29:07.769Z,6.94
2018-12-10T10:31:36.988Z,6.93
2018-12-10T10:34:06.173Z,6.79
2018-12-10T10:36:35.344Z,6.88
2018-12-10T10:39:05.870Z,6.93
2018-12-10T10:41:35.035Z,6.86
2018-12-10T10:44:04.373Z,6.86
2018-12-10T10:46:33.698Z,6.72
2018-12-10T10:49:02.857Z,6.74
2018-12-10T10:51:32.059Z,6.62
2018-12-10T10:54:02.299Z,6.60
2018-12-10T10:56:31.581Z,6.54
2018-12-10T10:59:00.892Z,6.64
2018-12-10T11:01:36.357Z,6.77
2018-12-10T11:04:06.796Z,6.89
2018-12-10T11:06:37.171Z,6.78
2018-12-10T11:09:15.148Z,6.75
2018-12-10T11:11:40.052Z,6.75
2018-12-10T11:14:11.216Z,6.76
2018-12-10T11:16:41.631Z,6.87
2018-12-10T11:19:13.259Z,6.82
2018-12-10T11:21:42.488Z,6.76
2018-12-10T11:24:11.783Z,6.81
2018-12-10T11:26:41.011Z,6.81
2018-12-10T11:29:10.643Z,6.76
2018-12-10T11:31:39.879Z,6.74
2018-12-10T11:34:09.471Z,6.72
2018-12-10T11:36:38.670Z,6.84
2018-12-10T11:39:08.160Z,6.84
2018-12-10T11:41:37.389Z,6.67
2018-12-10T11:44:06.605Z,6.58
2018-12-10T11:46:35.800Z,6.52
2018-12-10T11:49:04.977Z,6.68
2018-12-10T11:51:34.184Z,6.63
2018-12-10T11:54:03.915Z,6.76
2018-12-10T11:56:32.681Z,6.69
2018-12-10T11:59:01.900Z,6.68
2018-12-10T12:01:31.179Z,6.60
2018-12-10T12:04:00.412Z,6.57
2018-12-10T12:06:29.912Z,6.47
2018-12-10T12:08:59.160Z,6.45
2018-12-10T12:11:28.427Z,6.38
2018-12-10T12:13:57.674Z,6.53
2018-12-10T12:16:27.035Z,6.65
2018-12-10T12:18:57.637Z,6.65
2018-12-10T12:21:25.478Z,6.58
2018-12-10T12:23:54.656Z,6.44
2018-12-10T12:26:23.945Z,6.51
2018-12-10T12:28:53.149Z,6.46
2018-12-10T12:31:22.321Z,6.35
2018-12-10T12:33:51.502Z,6.27
2018-12-10T12:36:20.745Z,6.49
2018-12-10T12:38:49.976Z,6.45
2018-12-10T12:41:19.202Z,6.36
2018-12-10T12:43:48.425Z,6.54
2018-12-10T12:46:17.728Z,6.47
2018-12-10T12:48:47.184Z,6.38
2018-12-10T12:51:16.128Z,6.32
2018-12-10T12:53:45.333Z,6.33
2018-12-10T12:56:14.543Z,6.35
2018-12-10T12:58:43.729Z,6.38
2018-12-10T13:01:12.988Z,6.45
2018-12-10T13:03:42.438Z,6.62
2018-12-10T13:06:11.991Z,6.70
2018-12-10T13:08:41.241Z,6.65
2018-12-10T13:11:10.776Z,6.63
2018-12-10T13:13:39.985Z,6.71
2018-12-10T13:16:09.759Z,6.63
2018-12-10T13:18:38.956Z,6.67
2018-12-10T13:21:08.522Z,6.67
2018-12-10T13:23:37.708Z,6.69
2018-12-10T13:26:06.973Z,6.65
2018-12-10T13:28:36.175Z,6.63
2018-12-10T13:31:05.399Z,6.73
2018-12-10T13:33:34.576Z,6.65
2018-12-10T13:36:03.830Z,6.64
2018-12-10T13:38:36.896Z,6.76
2018-12-10T13:41:02.490Z,6.81
2018-12-10T13:43:31.731Z,6.80
2018-12-10T13:46:01.009Z,6.77
2018-12-10T13:48:30.140Z,6.62
2018-12-10T13:50:59.337Z,6.57
2018-12-10T13:53:28.516Z,6.50
2018-12-10T13:55:57.718Z,6.29
2018-12-10T13:58:26.903Z,6.17
2018-12-10T14:00:56.166Z,6.06
2018-12-10T14:03:25.443Z,6.09
2018-12-10T14:05:54.664Z,5.99
2018-12-10T14:08:23.820Z,6.15
2018-12-10T14:10:53.025Z,6.34
2018-12-10T14:13:22.225Z,6.34
2018-12-10T14:15:51.497Z,6.29
2018-12-10T14:18:20.695Z,6.07
2018-12-10T14:20:49.899Z,6.05
2018-12-10T14:23:19.121Z,5.96
2018-12-10T14:25:48.360Z,5.91
2018-12-10T14:28:17.689Z,5.95
2018-12-10T14:30:47.201Z,5.99
2018-12-10T14:33:16.485Z,5.99
2018-12-10T14:35:45.693Z,5.89
2018-12-10T14:38:14.939Z,5.79
2018-12-10T14:40:44.199Z,5.78
2018-12-10T14:43:13.551Z,5.80
2018-12-10T14:45:42.764Z,5.80
2018-12-10T14:48:11.912Z,5.93
2018-12-10T14:50:41.158Z,5.96
2018-12-10T14:53:10.386Z,5.88
2018-12-10T14:55:39.662Z,5.91
2018-12-10T14:58:09.351Z,5.84
2018-12-10T15:00:38.666Z,5.96
2018-12-10T15:03:08.137Z,6.07
2018-12-10T15:05:37.624Z,6.09
2018-12-10T15:08:06.971Z,6.07
2018-12-10T15:10:36.201Z,5.92
2018-12-10T15:13:05.414Z,5.85
2018-12-10T15:15:34.633Z,5.84
2018-12-10T15:18:03.866Z,5.71
2018-12-10T15:20:33.081Z,5.65
2018-12-10T15:23:02.263Z,5.63
2018-12-10T15:25:31.530Z,5.61
2018-12-10T15:28:00.710Z,5.49
2018-12-10T15:30:29.881Z,5.55
2018-12-10T15:32:59.248Z,5.58
2018-12-10T15:35:28.929Z,5.68
2018-12-10T15:37:58.141Z,5.73
2018-12-10T15:40:27.363Z,5.70
2018-12-10T15:42:56.596Z,5.74
2018-12-10T15:45:26.193Z,5.71
2018-12-10T15:47:55.433Z,5.70
2018-12-10T15:50:24.629Z,5.76
2018-12-10T15:52:53.930Z,5.64
2018-12-10T15:55:23.130Z,5.75
2018-12-10T15:57:52.367Z,5.76
2018-12-10T16:00:21.817Z,5.73
2018-12-10T16:02:51.259Z,5.71
2018-12-10T16:05:20.726Z,5.74
2018-12-10T16:07:49.964Z,5.76
2018-12-10T16:10:19.132Z,5.67
2018-12-10T16:12:48.405Z,5.65
2018-12-10T16:15:17.976Z,5.59
2018-12-10T16:17:47.205Z,5.49
2018-12-10T16:20:17.216Z,5.40
2018-12-10T16:22:46.450Z,5.24
2018-12-10T16:25:16.543Z,5.18
2018-12-10T16:27:45.835Z,5.07
2018-12-10T16:30:16.751Z,5.02
2018-12-10T16:32:46.004Z,4.89
2018-12-10T16:35:16.183Z,4.88
2018-12-10T16:37:45.354Z,4.78
2018-12-10T16:40:15.313Z,4.74
2018-12-10T16:42:44.540Z,4.79
2018-12-10T16:45:14.158Z,4.85
2018-12-10T16:47:43.506Z,4.90
2018-12-10T16:50:12.846Z,4.79
2018-12-10T16:52:42.076Z,4.74
2018-12-10T16:55:11.587Z,4.75
2018-12-10T16:57:40.781Z,4.81
2018-12-10T17:00:13.448Z,4.79
2018-12-10T17:02:42.699Z,4.59
2018-12-10T17:05:12.168Z,4.58
2018-12-10T17:07:42.669Z,4.56
2018-12-10T17:10:12.398Z,4.60
2018-12-10T17:12:42.724Z,4.68
2018-12-10T17:15:11.942Z,4.55
2018-12-10T17:17:41.841Z,4.59
2018-12-10T17:20:16.773Z,4.64
2018-12-10T17:22:45.979Z,4.50
2018-12-10T17:25:16.783Z,4.54
2018-12-10T17:27:46.051Z,4.70
2018-12-10T17:30:15.847Z,4.70
2018-12-10T17:32:45.061Z,4.79
2018-12-10T17:35:14.257Z,4.80
2018-12-10T17:37:43.422Z,4.73
2018-12-10T17:40:12.648Z,4.67
2018-12-10T17:42:41.861Z,4.50
2018-12-10T17:45:11.196Z,4.69
2018-12-10T17:47:40.356Z,4.57
2018-12-10T17:50:11.938Z,4.46
2018-12-10T17:52:41.170Z,4.57
2018-12-10T17:55:10.392Z,4.61
2018-12-10T17:57:39.564Z,4.84
2018-12-10T18:00:14.286Z,4.94
2018-12-10T18:02:43.451Z,4.98
2018-12-10T18:05:13.354Z,4.94
2018-12-10T18:07:42.565Z,4.86
2018-12-10T18:10:11.781Z,4.92
2018-12-10T18:12:41.026Z,4.92
2018-12-10T18:15:10.293Z,5.02
2018-12-10T18:17:40.445Z,5.01
2018-12-10T18:20:12.488Z,5.04
2018-12-10T18:22:41.781Z,5.13
2018-12-10T18:25:10.999Z,5.19
2018-12-10T18:27:40.314Z,5.03
2018-12-10T18:30:11.304Z,5.12
2018-12-10T18:32:40.617Z,5.16
2018-12-10T18:35:10.810Z,5.20
2018-12-10T18:37:40.180Z,5.17
2018-12-10T18:40:12.541Z,5.33
2018-12-10T18:42:42.625Z,5.47
2018-12-10T18:45:16.739Z,5.43
2018-12-10T18:47:45.933Z,5.25
2018-12-10T18:50:16.804Z,5.07
2018-12-10T18:52:46.040Z,4.91
2018-12-10T18:55:15.974Z,4.71
2018-12-10T18:57:45.260Z,4.41
2018-12-10T19:00:15.566Z,4.37
2018-12-10T19:02:44.975Z,4.30
2018-12-10T19:05:15.461Z,4.20
2018-12-10T19:07:44.696Z,4.01
2018-12-10T19:10:14.107Z,4.04
2018-12-10T19:12:43.360Z,3.91
2018-12-10T19:15:12.886Z,3.81
2018-12-10T19:17:42.135Z,3.66
2018-12-10T19:20:13.726Z,3.74
2018-12-10T19:22:40.582Z,3.89
2018-12-10T19:25:10.003Z,3.99
2018-12-10T19:27:39.183Z,4.04
2018-12-10T19:30:08.458Z,4.10
2018-12-10T19:32:41.353Z,4.22
2018-12-10T19:35:10.768Z,4.27
2018-12-10T19:37:39.985Z,4.25
2018-12-10T19:40:09.938Z,4.25
2018-12-10T19:42:39.131Z,4.21
2018-12-10T19:45:09.165Z,4.02
2018-12-10T19:47:38.389Z,4.06
2018-12-10T19:50:09.350Z,4.11
2018-12-10T19:52:39.270Z,4.05
2018-12-10T19:55:08.521Z,4.10
2018-12-10T19:57:38.791Z,4.27
2018-12-10T20:00:09.317Z,4.33
2018-12-10T20:02:39.442Z,4.15
2018-12-10T20:05:09.604Z,4.01
2018-12-10T20:07:39.639Z,3.97
2018-12-10T20:10:10.631Z,3.90
2018-12-10T20:12:39.982Z,4.07
2018-12-10T20:15:09.668Z,4.08
2018-12-10T20:17:38.868Z,4.15
2018-12-10T20:20:09.008Z,4.06
2018-12-10T20:22:38.282Z,4.13
2018-12-10T20:25:07.671Z,4.18
2018-12-10T20:27:36.945Z,4.13
2018-12-10T20:30:06.383Z,4.19
2018-12-10T20:32:35.565Z,4.31
2018-12-10T20:35:04.936Z,4.41
2018-12-10T20:37:34.177Z,4.31
2018-12-10T20:40:03.435Z,4.27
2018-12-10T20:42:32.731Z,4.18
2018-12-10T20:45:01.946Z,4.16
2018-12-10T20:47:31.427Z,4.08
2018-12-10T20:50:00.697Z,4.08
2018-12-10T20:52:29.897Z,4.12
2018-12-10T20:54:59.119Z,4.28
2018-12-10T20:57:29.093Z,4.46
2018-12-10T20:59:58.385Z,4.45
2018-12-10T21:02:29.345Z,4.36
2018-12-10T21:04:56.933Z,4.41
2018-12-10T21:07:26.203Z,4.34
2018-12-10T21:09:55.460Z,4.32
2018-12-10T21:12:24.865Z,4.19
2018-12-10T21:15:00.184Z,4.19
2018-12-10T21:17:23.390Z,4.24
2018-12-10T21:19:52.761Z,4.27
2018-12-10T21:22:21.961Z,4.35
2018-12-10T21:24:51.245Z,4.41
2018-12-10T21:27:20.474Z,4.56
2018-12-10T21:29:49.964Z,4.60
2018-12-10T21:32:19.155Z,4.54
2018-12-10T21:34:48.454Z,4.54
2018-12-10T21:37:17.746Z,4.62
2018-12-10T21:39:46.923Z,4.62
2018-12-10T21:42:16.416Z,4.68
2018-12-10T21:44:45.817Z,4.70
2018-12-10T21:47:15.626Z,4.65
2018-12-10T21:49:44.858Z,4.69
2018-12-10T21:52:15.020Z,4.63
2018-12-10T21:54:44.381Z,4.66
2018-12-10T21:57:14.181Z,4.75
2018-12-10T21:59:44.477Z,4.83
2018-12-10T22:02:14.628Z,4.91
2018-12-10T22:04:43.821Z,4.71
2018-12-10T22:07:13.972Z,4.76
2018-12-10T22:09:43.254Z,4.86
2018-12-10T22:12:12.809Z,4.80
2018-12-10T22:14:42.014Z,4.77
2018-12-10T22:17:11.270Z,4.76
2018-12-10T22:19:40.455Z,4.74
2018-12-10T22:22:09.685Z,4.88
2018-12-10T22:24:38.900Z,4.82
2018-12-10T22:27:08.662Z,4.75
2018-12-10T22:29:37.920Z,4.61
2018-12-10T22:32:07.166Z,4.64
2018-12-10T22:34:36.330Z,4.79
2018-12-10T22:37:05.740Z,4.81
2018-12-10T22:39:34.981Z,4.95
2018-12-10T22:42:04.161Z,4.96
2018-12-10T22:44:33.443Z,4.90
2018-12-10T22:47:02.746Z,4.84
2018-12-10T22:49:31.957Z,4.75
2018-12-10T22:52:01.207Z,4.82
2018-12-10T22:54:31.854Z,4.67
2018-12-10T22:57:02.696Z,4.61
2018-12-10T22:59:31.954Z,4.54
2018-12-10T23:02:01.167Z,4.63
2018-12-10T23:04:31.259Z,4.56
2018-12-10T23:07:02.584Z,4.58
2018-12-10T23:09:31.815Z,4.54
2018-12-10T23:12:01.695Z,4.83
2018-12-10T23:14:30.881Z,4.87
2018-12-10T23:17:00.077Z,4.85
2018-12-10T23:19:29.477Z,4.90
2018-12-10T23:22:01.515Z,5.00
2018-12-10T23:24:33.544Z,4.97
2018-12-10T23:27:03.385Z,4.83
2018-12-10T23:29:32.683Z,4.89
2018-12-10T23:32:03.245Z,4.78
2018-12-10T23:34:33.774Z,4.80
2018-12-10T23:37:02.982Z,4.83
2018-12-10T23:40:01.042Z,4.91
2018-12-10T23:42:31.173Z,4.96
2018-12-10T23:45:00.444Z,4.99
2018-12-10T23:47:29.669Z,4.96
2018-12-10T23:49:58.862Z,4.88
2018-12-10T23:52:28.046Z,4.85
2018-12-10T23:54:57.295Z,4.72
2018-12-10T23:57:27.303Z,4.74
2018-12-10T23:59:56.502Z,4.57
